Time;durP1;ratioP1;P1;durP2;ratioP2;P2;SDS_P1;SDS_P2;PMS_P1;PMS_P2;Temp;Humidity;BMP_temperature;BMP_pressure;BME280_temperature;BME280_humidity;BME280_pressure;Samples;Min_cycle;Max_cycle;Signal;HPM_P1;HPM_P2
2023/07/08 00:01:45;;;;;;;10.98;9.60;;;;;;;20.15;99.21;98563.50;4070039;29;20228;-62
2023/07/08 00:03:47;;;;;;;11.13;8.35;;;;;;;20.48;98.72;98562.22;4071470;29;20223;-63
2023/07/08 00:05:53;;;;;;;10.98;8.95;;;;;;;20.56;97.98;98563.41;4072353;29;20201;-62
2023/07/08 00:07:55;;;;;;;9.15;8.27;;;;;;;20.63;97.97;98572.13;4071017;29;20202;-62
2023/07/08 00:09:56;;;;;;;10.77;9.85;;;;;;;20.67;97.86;98562.88;4071832;29;20218;-63
2023/07/08 00:11:58;;;;;;;10.00;9.10;;;;;;;20.68;97.32;98567.31;4072419;29;20250;-63
2023/07/08 00:13:59;;;;;;;10.30;9.45;;;;;;;20.72;97.65;98573.88;4071507;29;20291;-63
2023/07/08 00:16:01;;;;;;;9.68;8.73;;;;;;;20.71;97.49;98565.84;4071386;29;20700;-62
2023/07/08 00:18:11;;;;;;;9.43;8.50;;;;;;;20.68;97.16;98572.88;4070580;29;21144;-63
2023/07/08 00:20:15;;;;;;;9.23;8.52;;;;;;;20.65;96.63;98575.44;4061605;29;20207;-63
2023/07/08 00:22:17;;;;;;;8.45;7.75;;;;;;;20.57;96.32;98576.19;4073762;29;20232;-63
2023/07/08 00:24:18;;;;;;;10.68;8.20;;;;;;;20.57;95.92;98581.78;4072467;29;20226;-63
2023/07/08 00:26:25;;;;;;;15.25;9.55;;;;;;;20.53;95.35;98564.06;4068611;29;20927;-63
2023/07/08 00:28:27;;;;;;;10.55;9.65;;;;;;;20.49;95.30;98568.56;4057303;29;20213;-63
2023/07/08 00:30:30;;;;;;;9.60;8.38;;;;;;;20.57;95.54;98567.88;4071501;29;20212;-63
2023/07/08 00:32:31;;;;;;;13.10;8.05;;;;;;;20.45;96.48;98562.00;4072943;29;20208;-63
2023/07/08 00:34:33;;;;;;;10.52;9.45;;;;;;;20.36;97.11;98550.81;4075918;29;20222;-63
2023/07/08 00:36:35;;;;;;;10.27;9.30;;;;;;;20.32;97.37;98555.34;4071026;29;20294;-63
2023/07/08 00:38:36;;;;;;;12.20;8.18;;;;;;;20.33;97.90;98553.38;4071363;29;20609;-62
2023/07/08 00:40:38;;;;;;;9.38;8.50;;;;;;;20.43;97.90;98555.91;4071519;29;20367;-63
2023/07/08 00:42:42;;;;;;;10.60;9.63;;;;;;;20.12;98.60;98552.19;4067802;29;20248;-63
2023/07/08 00:44:44;;;;;;;9.55;8.68;;;;;;;20.27;99.06;98560.19;4071780;29;20295;-63
2023/07/08 00:47:01;;;;;;;9.98;9.18;;;;;;;20.23;98.47;98556.38;4068905;29;20295;-63
2023/07/08 00:49:38;;;;;;;10.60;9.70;;;;;;;20.23;97.98;98553.59;4072186;29;20209;-63
2023/07/08 00:51:40;;;;;;;9.25;8.48;;;;;;;20.28;98.28;98556.28;4074004;29;20711;-63
2023/07/08 00:53:41;;;;;;;10.27;8.90;;;;;;;20.34;98.33;98564.22;4070641;29;20211;-63
2023/07/08 00:55:43;;;;;;;10.40;9.48;;;;;;;20.34;98.23;98549.47;4070457;29;20681;-63
2023/07/08 00:57:45;;;;;;;11.27;9.10;;;;;;;20.40;98.00;98548.22;4067468;29;20239;-63
2023/07/08 00:59:53;;;;;;;9.30;8.40;;;;;;;20.31;97.92;98547.31;4069928;29;20212;-63
2023/07/08 01:01:55;;;;;;;8.48;7.80;;;;;;;20.32;97.50;98540.63;4071723;29;20865;-63
2023/07/08 01:04:23;;;;;;;12.85;8.50;;;;;;;20.29;97.36;98535.69;4071050;28;20211;-63
2023/07/08 01:06:31;;;;;;;9.20;8.27;;;;;;;20.31;97.26;98534.22;4070676;29;20226;-63
2023/07/08 01:08:32;;;;;;;9.43;8.52;;;;;;;20.30;97.43;98537.34;4070031;29;20199;-64
2023/07/08 01:10:39;;;;;;;12.18;8.90;;;;;;;20.23;97.28;98531.38;4070440;29;20260;-63
2023/07/08 01:12:46;;;;;;;9.68;8.77;;;;;;;20.19;96.84;98524.81;4056295;29;20670;-63
2023/07/08 01:14:48;;;;;;;11.20;8.35;;;;;;;20.23;97.00;98525.81;4082414;28;20246;-63
2023/07/08 01:16:51;;;;;;;9.50;8.60;;;;;;;20.16;97.06;98531.81;4071070;29;20235;-63
2023/07/08 01:18:55;;;;;;;9.10;8.15;;;;;;;20.13;97.12;98534.38;4072723;29;20232;-63
2023/07/08 01:21:06;;;;;;;8.68;7.97;;;;;;;20.20;96.60;98532.00;4061274;29;20343;-63
2023/07/08 01:23:07;;;;;;;11.50;9.20;;;;;;;20.10;96.30;98521.13;4079137;29;20263;-63
2023/07/08 01:25:10;;;;;;;12.75;8.05;;;;;;;20.06;96.23;98515.34;4072011;29;20755;-63
2023/07/08 01:27:14;;;;;;;8.75;7.95;;;;;;;20.07;96.67;98518.94;4080791;29;20208;-63
2023/07/08 01:29:15;;;;;;;9.43;8.52;;;;;;;19.93;97.19;98509.78;4076167;29;20207;-63
2023/07/08 01:31:17;;;;;;;10.88;8.68;;;;;;;19.88;97.24;98518.22;4076804;29;20260;-63
2023/07/08 01:33:21;;;;;;;14.95;9.05;;;;;;;19.88;96.94;98518.22;4076272;29;20246;-63
2023/07/08 01:35:23;;;;;;;14.77;8.50;;;;;;;19.92;97.08;98524.81;4075011;29;20707;-63
2023/07/08 01:37:29;;;;;;;9.18;8.38;;;;;;;19.90;97.24;98527.09;4075741;29;20627;-63
2023/07/08 01:39:31;;;;;;;9.77;8.73;;;;;;;19.87;97.22;98533.25;4076543;29;20215;-63
2023/07/08 01:41:33;;;;;;;9.18;8.35;;;;;;;19.88;97.68;98526.53;4061332;29;20775;-63
2023/07/08 01:43:34;;;;;;;11.55;10.45;;;;;;;19.90;97.88;98527.09;4072423;29;20295;-64
2023/07/08 01:45:40;;;;;;;9.27;8.40;;;;;;;19.84;97.69;98522.75;4075369;29;20239;-63
2023/07/08 01:47:43;;;;;;;9.25;8.10;;;;;;;19.77;98.09;98522.34;4076194;29;20275;-63
2023/07/08 01:49:46;;;;;;;10.15;8.93;;;;;;;19.73;98.05;98521.31;4074318;29;20583;-64
2023/07/08 01:51:48;;;;;;;8.63;7.95;;;;;;;19.69;98.33;98514.72;4073406;29;20266;-64
2023/07/08 01:53:50;;;;;;;9.30;8.45;;;;;;;19.61;98.92;98507.13;4073598;29;20249;-64
2023/07/08 01:55:52;;;;;;;8.32;7.68;;;;;;;19.64;99.11;98510.09;4073466;29;20332;-63
2023/07/08 02:01:16;;;;;;;10.18;9.18;;;;;;;19.53;99.17;98516.16;4072903;29;20639;-64
2023/07/08 02:03:18;;;;;;;9.15;8.35;;;;;;;19.50;98.76;98516.78;4074799;29;20708;-64
2023/07/08 02:05:19;;;;;;;10.60;7.93;;;;;;;19.50;98.60;98514.00;4073256;29;20298;-64
2023/07/08 02:07:21;;;;;;;12.57;8.95;;;;;;;19.51;98.73;98518.44;4071399;29;20635;-64
2023/07/08 02:09:24;;;;;;;9.52;8.73;;;;;;;19.49;98.97;98526.22;4071324;29;20214;-63
2023/07/08 02:11:26;;;;;;;9.95;9.05;;;;;;;19.48;99.31;98519.03;4072224;29;20255;-64
2023/07/08 02:13:27;;;;;;;9.20;8.40;;;;;;;19.39;100.00;98532.00;4074232;29;20643;-62
2023/07/08 02:15:29;;;;;;;10.18;9.38;;;;;;;19.36;100.00;98527.03;4074967;29;20223;-64
2023/07/08 02:17:31;;;;;;;9.52;8.63;;;;;;;19.34;100.00;98532.91;4079034;29;20365;-64
2023/07/08 02:19:32;;;;;;;9.20;8.25;;;;;;;19.29;100.00;98537.72;4072251;29;20270;-64
2023/07/08 02:21:34;;;;;;;8.98;8.23;;;;;;;19.28;100.00;98536.06;4070532;29;20270;-64
2023/07/08 02:23:35;;;;;;;8.80;7.90;;;;;;;19.34;100.00;98524.59;4074422;29;20312;-63
2023/07/08 02:25:37;;;;;;;9.85;8.98;;;;;;;19.39;100.00;98534.78;4071390;29;20218;-63
2023/07/08 02:27:38;;;;;;;11.13;8.38;;;;;;;19.36;100.00;98527.03;4072198;29;20618;-63
2023/07/08 02:29:40;;;;;;;8.48;7.78;;;;;;;19.37;100.00;98534.25;4071814;29;20299;-63
2023/07/08 02:31:42;;;;;;;9.60;8.65;;;;;;;19.41;100.00;98529.72;4074639;29;20727;-63
2023/07/08 02:33:43;;;;;;;9.65;8.85;;;;;;;19.47;100.00;98534.06;4071525;29;20231;-63
2023/07/08 02:35:48;;;;;;;9.55;8.75;;;;;;;19.45;100.00;98536.31;4071825;29;20212;-64
2023/07/08 02:37:49;;;;;;;9.77;8.98;;;;;;;19.42;100.00;98534.16;4072684;29;20215;-63
2023/07/08 02:39:51;;;;;;;10.30;9.50;;;;;;;19.40;100.00;98539.19;4077981;29;21156;-63
2023/07/08 02:41:52;;;;;;;10.27;9.35;;;;;;;19.36;100.00;98543.69;4076945;29;20251;-64
2023/07/08 02:43:54;;;;;;;9.57;8.68;;;;;;;19.32;100.00;98543.47;4072087;29;20673;-64
2023/07/08 02:45:56;;;;;;;9.13;8.38;;;;;;;19.38;100.00;98547.00;4072155;29;20299;-63
2023/07/08 02:47:57;;;;;;;10.25;9.45;;;;;;;19.33;100.00;98544.31;4072094;29;20990;-63
2023/07/08 02:49:59;;;;;;;9.25;8.32;;;;;;;19.32;100.00;98551.00;4070918;29;20209;-63
2023/07/08 02:52:00;;;;;;;9.15;8.25;;;;;;;19.37;100.00;98556.47;4074423;29;20342;-63
2023/07/08 02:54:02;;;;;;;9.30;8.50;;;;;;;19.46;100.00;98551.84;4075272;29;20631;-64
2023/07/08 02:56:03;;;;;;;9.10;8.27;;;;;;;19.32;100.00;98548.22;4071862;29;20231;-63
2023/07/08 02:58:05;;;;;;;9.68;8.82;;;;;;;19.15;100.00;98556.25;4071253;29;20759;-63
2023/07/08 03:00:07;;;;;;;10.05;9.15;;;;;;;19.13;100.00;98539.09;4069383;29;20208;-64
2023/07/08 03:02:09;;;;;;;9.77;8.82;;;;;;;19.09;100.00;98554.69;4073568;29;20228;-63
2023/07/08 03:04:13;;;;;;;9.75;8.95;;;;;;;19.08;100.00;98553.06;4070782;29;20245;-63
2023/07/08 03:06:15;;;;;;;8.63;7.35;;;;;;;19.07;100.00;98551.41;4076820;29;20685;-63
2023/07/08 03:08:16;;;;;;;9.60;8.70;;;;;;;19.04;100.00;98552.03;4070588;29;20255;-63
2023/07/08 03:10:18;;;;;;;9.18;8.13;;;;;;;19.02;100.00;98548.72;4073355;29;20300;-63
2023/07/08 03:12:20;;;;;;;10.25;9.45;;;;;;;18.99;100.00;98563.22;4074063;29;20207;-63
2023/07/08 03:14:21;;;;;;;9.63;8.85;;;;;;;19.11;100.00;98563.56;4070648;29;20208;-63
2023/07/08 03:16:23;;;;;;;10.50;7.15;;;;;;;18.99;100.00;98564.00;4072277;29;20220;-63
2023/07/08 03:18:26;;;;;;;8.63;7.93;;;;;;;18.92;100.00;98562.78;4073284;29;20224;-63
2023/07/08 03:20:27;;;;;;;9.07;8.15;;;;;;;18.83;100.00;98557.09;4072403;29;20656;-63
2023/07/08 03:22:29;;;;;;;8.98;7.47;;;;;;;18.81;100.00;98564.88;4073070;29;20739;-63
2023/07/08 03:24:30;;;;;;;8.55;7.80;;;;;;;18.85;100.00;98565.13;4070366;29;20208;-63
2023/07/08 03:26:34;;;;;;;8.88;8.07;;;;;;;18.85;100.00;98554.03;4070512;29;20212;-64
2023/07/08 03:28:35;;;;;;;9.35;8.55;;;;;;;18.87;100.00;98568.41;4071106;29;20891;-64
2023/07/08 03:30:37;;;;;;;8.63;7.80;;;;;;;18.89;100.00;98566.13;4072388;29;20227;-63
2023/07/08 03:32:38;;;;;;;8.27;7.55;;;;;;;18.91;100.00;98558.34;4073104;29;20213;-63
2023/07/08 03:34:40;;;;;;;9.70;8.90;;;;;;;18.89;100.00;98563.38;4074814;29;20203;-64
2023/07/08 03:36:48;;;;;;;9.35;8.55;;;;;;;18.93;100.00;98561.66;4069046;29;20262;-64
2023/07/08 03:38:55;;;;;;;9.57;8.68;;;;;;;18.93;100.00;98567.19;4077785;29;20227;-64
2023/07/08 03:40:57;;;;;;;8.07;7.47;;;;;;;18.88;100.00;98558.94;4072566;29;20224;-64
2023/07/08 03:42:59;;;;;;;8.93;8.23;;;;;;;18.84;100.00;98552.38;4071740;29;20216;-64
2023/07/08 03:45:01;;;;;;;8.93;8.20;;;;;;;18.87;100.00;98562.84;4069576;29;20240;-64
2023/07/08 03:47:02;;;;;;;9.23;8.43;;;;;;;18.89;100.00;98560.59;4071898;29;20323;-64
2023/07/08 03:49:04;;;;;;;8.70;7.97;;;;;;;18.75;100.00;98560.56;4069124;29;20211;-63
2023/07/08 03:51:20;;;;;;;10.48;9.68;;;;;;;18.65;100.00;98565.44;4070157;29;20228;-63
2023/07/08 03:53:21;;;;;;;8.35;7.57;;;;;;;18.61;100.00;98567.16;4081101;28;20238;-63
2023/07/08 03:55:23;;;;;;;8.23;7.00;;;;;;;18.58;100.00;98570.53;4084167;28;20311;-64
2023/07/08 03:57:24;;;;;;;11.07;8.60;;;;;;;18.59;100.00;98570.22;4084284;28;20679;-63
2023/07/08 03:59:26;;;;;;;8.65;7.85;;;;;;;18.50;100.00;98562.88;4070089;29;20328;-64
2023/07/08 04:01:28;;;;;;;8.98;8.18;;;;;;;18.51;100.00;98559.00;4059400;29;20756;-64
2023/07/08 04:03:29;;;;;;;8.00;7.30;;;;;;;18.56;100.00;98562.50;4061933;29;20217;-64
2023/07/08 04:05:31;;;;;;;11.38;9.02;;;;;;;18.59;100.00;98567.44;4072848;29;20264;-63
2023/07/08 04:07:33;;;;;;;8.68;7.95;;;;;;;18.52;100.00;98566.19;4070559;29;20223;-64
2023/07/08 04:09:35;;;;;;;11.05;9.55;;;;;;;18.51;100.00;98564.53;4070455;29;20236;-64
2023/07/08 04:11:36;;;;;;;9.38;8.57;;;;;;;18.39;100.00;98564.97;4067863;29;20283;-63
2023/07/08 04:13:38;;;;;;;8.90;7.82;;;;;;;18.51;100.00;98567.31;4065843;29;20331;-63
2023/07/08 04:15:39;;;;;;;12.45;7.88;;;;;;;18.44;100.00;98564.09;4071417;29;20212;-64
2023/07/08 04:17:44;;;;;;;8.02;7.32;;;;;;;18.46;100.00;98562.66;4067168;29;20222;-63
2023/07/08 04:19:46;;;;;;;8.18;7.38;;;;;;;18.49;100.00;98567.59;4075038;29;20293;-63
2023/07/08 04:21:47;;;;;;;7.85;6.78;;;;;;;18.45;100.00;98568.50;4071453;29;20715;-64
2023/07/08 04:23:49;;;;;;;9.63;8.77;;;;;;;18.44;100.00;98566.88;4069467;29;20212;-63
2023/07/08 04:25:53;;;;;;;8.93;8.20;;;;;;;18.49;100.00;98572.31;4071480;29;20204;-64
2023/07/08 04:27:55;;;;;;;9.13;8.27;;;;;;;18.44;100.00;98569.63;4068663;29;20292;-65
2023/07/08 04:29:56;;;;;;;10.02;7.70;;;;;;;18.48;100.00;98573.44;4071785;29;20236;-64
2023/07/08 04:31:58;;;;;;;8.43;7.72;;;;;;;18.51;100.00;98570.09;4071336;29;20552;-63
2023/07/08 04:33:59;;;;;;;8.20;7.55;;;;;;;18.54;100.00;98559.22;4068543;29;20216;-64
2023/07/08 04:36:01;;;;;;;8.43;7.65;;;;;;;18.53;100.00;98567.84;4074047;29;20235;-64
2023/07/08 04:38:09;;;;;;;8.27;6.95;;;;;;;18.61;100.00;98565.22;4071953;29;20676;-63
2023/07/08 04:40:16;;;;;;;8.10;7.45;;;;;;;18.56;100.00;98573.59;4069533;29;20259;-64
2023/07/08 04:42:18;;;;;;;8.93;7.93;;;;;;;18.53;100.00;98573.38;4071816;29;20223;-64
2023/07/08 04:44:19;;;;;;;7.85;7.15;;;;;;;18.56;100.00;98567.22;4071374;29;20317;-64
2023/07/08 04:46:50;;;;;;;9.20;8.50;;;;;;;18.47;100.00;98574.56;4070978;29;20637;-64
2023/07/08 04:48:52;;;;;;;8.75;8.05;;;;;;;18.50;100.00;98580.34;4068710;29;20931;-64
2023/07/08 04:50:54;;;;;;;9.45;8.55;;;;;;;18.61;100.00;98586.56;4067090;29;20231;-64
2023/07/08 04:52:56;;;;;;;9.20;8.40;;;;;;;18.33;100.00;98584.75;4071955;29;20231;-64
2023/07/08 04:54:57;;;;;;;9.77;8.20;;;;;;;18.40;100.00;98585.19;4071998;29;20209;-63
2023/07/08 04:56:59;;;;;;;8.88;8.05;;;;;;;18.48;100.00;98588.13;4069771;29;20204;-63
2023/07/08 04:59:01;;;;;;;9.25;8.45;;;;;;;18.40;100.00;98587.97;4069049;29;20234;-63
2023/07/08 05:01:03;;;;;;;10.90;8.40;;;;;;;18.36;100.00;98587.75;4068421;29;20527;-63
2023/07/08 05:03:04;;;;;;;8.73;7.93;;;;;;;18.35;100.00;98586.09;4070399;29;20239;-63
2023/07/08 05:05:06;;;;;;;8.32;7.63;;;;;;;18.46;100.00;98584.00;4068386;29;20295;-64
2023/07/08 05:07:07;;;;;;;9.30;7.53;;;;;;;18.49;100.00;98592.56;4068507;29;20227;-64
2023/07/08 05:09:09;;;;;;;9.38;8.43;;;;;;;18.58;100.00;98590.75;4069107;29;20811;-64
2023/07/08 05:11:11;;;;;;;8.02;7.35;;;;;;;18.62;100.00;98593.75;4067547;29;20224;-63
2023/07/08 05:13:12;;;;;;;8.98;8.18;;;;;;;18.72;100.00;98590.84;4078619;29;20243;-64
2023/07/08 05:15:15;;;;;;;8.98;8.18;;;;;;;18.76;100.00;98594.63;4070889;29;20204;-64
2023/07/08 05:17:16;;;;;;;10.10;9.13;;;;;;;18.83;100.00;98606.16;4069930;29;20263;-64
2023/07/08 05:19:21;;;;;;;8.30;7.55;;;;;;;18.91;100.00;98602.72;4071616;29;20322;-64
2023/07/08 05:21:23;;;;;;;9.02;8.15;;;;;;;18.93;100.00;98611.56;4057700;29;20336;-64
2023/07/08 05:23:24;;;;;;;10.07;7.18;;;;;;;18.96;100.00;98606.25;4072195;29;20264;-64
2023/07/08 05:25:27;;;;;;;10.82;8.95;;;;;;;19.01;100.00;98613.66;4071265;29;20207;-64
2023/07/08 05:27:29;;;;;;;9.27;8.52;;;;;;;19.03;100.00;98623.31;4069509;29;20581;-64
2023/07/08 05:29:30;;;;;;;7.72;7.13;;;;;;;18.98;100.00;98625.38;4068693;29;20260;-64
2023/07/08 05:31:33;;;;;;;8.32;7.47;;;;;;;18.99;100.00;98629.78;4070476;29;21045;-63
2023/07/08 05:33:48;;;;;;;8.93;8.02;;;;;;;19.09;100.00;98626.84;4070752;29;20732;-63
2023/07/08 05:35:50;;;;;;;14.98;8.65;;;;;;;18.86;100.00;98628.56;4072411;29;20222;-64
2023/07/08 05:37:52;;;;;;;9.40;8.55;;;;;;;18.63;100.00;98628.66;4060327;29;20231;-64
2023/07/08 05:39:54;;;;;;;9.27;8.27;;;;;;;18.68;100.00;98632.19;4069006;29;20218;-64
2023/07/08 05:41:55;;;;;;;9.77;8.88;;;;;;;18.64;100.00;98630.31;4069207;29;20319;-63
2023/07/08 05:43:57;;;;;;;12.40;8.68;;;;;;;18.72;100.00;98637.97;4070193;29;20656;-63
2023/07/08 05:45:59;;;;;;;9.60;8.75;;;;;;;18.56;100.00;98630.97;4069243;29;20229;-64
2023/07/08 05:48:12;;;;;;;8.70;7.88;;;;;;;18.41;100.00;98639.50;4070691;29;20208;-64
2023/07/08 05:50:14;;;;;;;14.85;9.20;;;;;;;18.52;100.00;98638.25;4069938;29;20881;-63
2023/07/08 05:52:16;;;;;;;9.25;8.07;;;;;;;18.60;100.00;98645.91;4069624;29;20238;-64
2023/07/08 05:54:17;;;;;;;8.50;7.15;;;;;;;18.78;100.00;98642.31;4062542;29;20208;-64
2023/07/08 05:56:19;;;;;;;8.55;7.85;;;;;;;18.94;100.00;98647.34;4070642;29;20296;-64
2023/07/08 05:58:20;;;;;;;10.48;8.85;;;;;;;18.99;100.00;98644.47;4070200;29;20205;-64
2023/07/08 06:00:27;;;;;;;8.75;7.85;;;;;;;19.10;100.00;98645.13;4067348;29;20262;-65
2023/07/08 06:02:39;;;;;;;10.13;8.60;;;;;;;19.43;100.00;98647.66;4068759;29;20200;-64
2023/07/08 06:04:41;;;;;;;15.18;9.93;;;;;;;19.79;100.00;98645.06;4068748;29;20212;-64
2023/07/08 06:06:42;;;;;;;9.07;8.00;;;;;;;20.02;100.00;98652.38;4068346;29;20238;-64
2023/07/08 06:08:44;;;;;;;9.88;8.93;;;;;;;20.12;100.00;98650.25;4071685;29;20204;-64
2023/07/08 06:10:45;;;;;;;7.20;6.60;;;;;;;20.20;100.00;98659.84;4071878;29;20259;-65
2023/07/08 06:12:47;;;;;;;8.63;7.72;;;;;;;20.23;100.00;98659.22;4075617;29;20634;-64
2023/07/08 06:14:49;;;;;;;9.80;8.80;;;;;;;20.21;100.00;98655.94;4071237;29;20302;-64
2023/07/08 06:16:50;;;;;;;8.68;7.88;;;;;;;20.23;100.00;98664.78;4070689;29;20238;-64
2023/07/08 06:18:52;;;;;;;12.73;8.57;;;;;;;20.26;100.00;98664.19;4073452;29;20219;-64
2023/07/08 06:20:55;;;;;;;12.10;7.82;;;;;;;20.43;100.00;98669.91;4072674;29;21175;-64
2023/07/08 06:22:58;;;;;;;15.93;8.00;;;;;;;20.54;100.00;98665.81;4070854;29;20205;-64
2023/07/08 06:24:59;;;;;;;8.10;7.38;;;;;;;20.71;98.76;98671.56;4070683;29;20418;-64
2023/07/08 06:27:01;;;;;;;7.20;6.60;;;;;;;20.81;97.40;98672.16;4071610;29;20208;-64
2023/07/08 06:29:03;;;;;;;10.55;8.52;;;;;;;20.84;98.10;98676.28;4070635;29;20240;-64
2023/07/08 06:31:05;;;;;;;8.45;7.55;;;;;;;20.95;97.68;98669.34;4073201;29;20232;-64
2023/07/08 06:33:06;;;;;;;8.23;7.47;;;;;;;21.00;97.18;98674.81;4079831;29;20200;-64
2023/07/08 06:35:08;;;;;;;8.02;7.25;;;;;;;21.03;96.98;98674.16;4063029;29;20216;-64
2023/07/08 06:37:10;;;;;;;8.77;7.78;;;;;;;21.08;97.19;98676.84;4070407;29;20212;-64
2023/07/08 06:39:11;;;;;;;9.10;8.40;;;;;;;21.01;97.04;98682.03;4070853;29;20239;-65
2023/07/08 06:41:13;;;;;;;9.15;8.32;;;;;;;20.71;97.27;98677.13;4075227;29;20263;-64
2023/07/08 06:43:15;;;;;;;8.57;7.72;;;;;;;20.71;98.11;98682.69;4074273;29;20212;-65
2023/07/08 06:45:16;;;;;;;10.07;9.27;;;;;;;20.71;99.12;98679.91;4072411;29;20594;-64
2023/07/08 06:47:19;;;;;;;9.40;8.45;;;;;;;20.70;99.34;98681.03;4073399;29;20239;-64
2023/07/08 06:49:21;;;;;;;9.90;7.35;;;;;;;20.73;98.55;98680.41;4064618;29;20203;-65
2023/07/08 06:51:23;;;;;;;8.20;7.32;;;;;;;20.76;99.84;98688.13;4070631;29;20350;-64
2023/07/08 06:53:24;;;;;;;8.35;7.65;;;;;;;20.70;98.86;98683.81;4054357;29;20641;-65
2023/07/08 06:55:26;;;;;;;8.68;7.22;;;;;;;20.78;99.35;98685.88;4072219;29;20267;-64
2023/07/08 06:57:28;;;;;;;8.02;7.22;;;;;;;21.01;100.00;98693.16;4071963;29;20207;-64
2023/07/08 06:59:29;;;;;;;8.90;7.88;;;;;;;21.40;99.17;98696.13;4071233;29;20581;-64
2023/07/08 07:01:31;;;;;;;15.43;9.27;;;;;;;21.80;96.93;98698.75;4073050;29;20314;-64
2023/07/08 07:03:33;;;;;;;12.38;9.00;;;;;;;22.18;95.52;98701.91;4069391;29;20699;-65
2023/07/08 07:05:34;;;;;;;9.57;8.68;;;;;;;22.52;93.67;98704.88;4074241;29;20603;-65
2023/07/08 07:07:36;;;;;;;8.85;8.05;;;;;;;22.82;91.87;98703.97;4067218;29;20707;-65
2023/07/08 07:09:38;;;;;;;9.63;8.25;;;;;;;23.11;88.31;98704.22;4072119;29;20231;-64
2023/07/08 07:11:39;;;;;;;8.45;7.65;;;;;;;23.37;88.28;98699.50;4070388;29;20228;-64
2023/07/08 07:13:41;;;;;;;10.90;7.80;;;;;;;23.60;86.73;98706.53;4069126;29;20246;-65
2023/07/08 07:15:43;;;;;;;8.35;7.65;;;;;;;23.80;83.74;98706.69;4066596;29;20203;-64
2023/07/08 07:17:45;;;;;;;7.50;6.90;;;;;;;23.78;77.60;98709.81;4073089;29;20626;-64
2023/07/08 07:19:47;;;;;;;8.48;7.70;;;;;;;24.12;79.87;98720.16;4069386;29;20319;-64
2023/07/08 07:21:49;;;;;;;8.23;7.53;;;;;;;24.41;78.80;98721.03;4071221;29;20232;-64
2023/07/08 07:23:50;;;;;;;8.82;6.75;;;;;;;24.59;76.38;98714.22;4070699;29;20554;-64
2023/07/08 07:25:52;;;;;;;7.85;7.15;;;;;;;24.82;75.37;98711.97;4076923;29;20286;-64
2023/07/08 07:27:58;;;;;;;10.93;7.10;;;;;;;25.03;74.15;98724.03;4071248;29;20243;-64
2023/07/08 07:30:00;;;;;;;12.15;7.75;;;;;;;25.20;73.22;98716.34;4069391;29;20211;-64
2023/07/08 07:32:02;;;;;;;9.15;8.32;;;;;;;25.49;72.23;98716.34;4071583;29;20700;-64
2023/07/08 07:34:03;;;;;;;11.35;5.93;;;;;;;25.67;70.75;98723.41;4073133;29;20295;-64
2023/07/08 07:36:05;;;;;;;7.28;6.68;;;;;;;25.85;69.36;98719.31;4061358;29;20992;-63
2023/07/08 07:38:07;;;;;;;8.50;7.80;;;;;;;25.81;63.01;98726.78;4070737;29;20251;-64
2023/07/08 07:40:15;;;;;;;7.00;6.38;;;;;;;25.96;65.62;98722.53;4071496;29;20588;-64
2023/07/08 07:42:18;;;;;;;8.10;7.03;;;;;;;26.20;64.05;98729.03;4075327;29;20278;-64
2023/07/08 07:44:20;;;;;;;12.43;7.35;;;;;;;26.33;63.98;98727.91;4076404;29;20225;-64
2023/07/08 07:46:21;;;;;;;6.78;6.15;;;;;;;26.28;60.99;98730.13;4067961;29;20213;-64
2023/07/08 07:48:24;;;;;;;6.45;5.95;;;;;;;26.46;62.19;98726.75;4068439;28;20223;-64
2023/07/08 07:50:25;;;;;;;7.10;6.45;;;;;;;26.68;60.68;98720.75;4068089;29;20634;-63
2023/07/08 07:52:27;;;;;;;10.18;7.70;;;;;;;26.28;58.55;98721.69;4066906;29;20239;-64
2023/07/08 07:54:28;;;;;;;7.43;6.07;;;;;;;26.50;61.44;98733.31;4068362;29;20255;-64
2023/07/08 07:56:30;;;;;;;7.35;6.53;;;;;;;26.76;63.10;98733.84;4075507;29;20683;-64
2023/07/08 07:58:32;;;;;;;6.82;6.22;;;;;;;26.88;63.23;98730.22;4066382;29;20306;-65
2023/07/08 08:00:34;;;;;;;6.63;6.03;;;;;;;26.73;61.46;98717.69;4070229;29;20259;-65
2023/07/08 08:02:35;;;;;;;6.70;6.03;;;;;;;26.46;62.88;98729.56;4068111;29;20207;-64
2023/07/08 08:04:37;;;;;;;7.57;6.88;;;;;;;26.25;63.28;98717.59;4069119;29;20214;-65
2023/07/08 08:06:39;;;;;;;8.07;6.63;;;;;;;26.41;63.29;98726.16;4066984;29;20283;-64
2023/07/08 08:08:41;;;;;;;7.18;6.47;;;;;;;26.67;63.13;98724.69;4069642;29;20211;-65
2023/07/08 08:10:43;;;;;;;6.60;5.97;;;;;;;26.72;62.15;98720.88;4069830;29;20742;-64
2023/07/08 08:12:45;;;;;;;8.52;5.90;;;;;;;26.88;62.23;98719.81;4072424;29;20215;-64
2023/07/08 08:14:52;;;;;;;9.48;5.93;;;;;;;27.18;60.88;98723.22;4070724;29;20214;-64
2023/07/08 08:16:53;;;;;;;7.22;6.50;;;;;;;27.47;59.21;98709.66;4071168;29;20242;-64
2023/07/08 08:18:55;;;;;;;6.70;6.07;;;;;;;27.62;56.22;98708.09;4081992;29;20207;-64
2023/07/08 08:20:57;;;;;;;8.70;5.90;;;;;;;27.75;57.84;98716.16;4071871;29;20256;-64
2023/07/08 08:22:59;;;;;;;11.75;6.93;;;;;;;27.77;55.29;98713.84;4070809;29;20235;-64
2023/07/08 08:25:01;;;;;;;7.13;6.53;;;;;;;27.72;56.29;98713.25;4069373;29;20204;-64
2023/07/08 08:27:03;;;;;;;8.52;6.85;;;;;;;27.39;52.72;98707.81;4072264;29;20235;-64
2023/07/08 08:29:05;;;;;;;11.63;6.47;;;;;;;27.14;53.94;98723.09;4069273;29;20209;-64
2023/07/08 08:31:06;;;;;;;6.50;6.00;;;;;;;27.80;55.00;98717.94;4070240;29;20256;-64
2023/07/08 08:33:08;;;;;;;6.63;6.03;;;;;;;27.74;55.35;98716.50;4070695;29;20714;-64
2023/07/08 08:35:10;;;;;;;7.18;5.55;;;;;;;28.15;55.92;98725.41;4068190;29;20208;-64
2023/07/08 08:37:11;;;;;;;6.70;5.97;;;;;;;28.21;53.87;98723.97;4069702;29;20321;-64
2023/07/08 08:39:13;;;;;;;6.90;6.22;;;;;;;28.49;53.56;98719.13;4069637;29;20224;-64
2023/07/08 08:41:17;;;;;;;7.85;5.57;;;;;;;28.70;52.77;98728.13;4069459;29;20286;-64
2023/07/08 08:43:24;;;;;;;5.88;5.38;;;;;;;28.64;51.79;98725.97;4071942;29;20212;-64
2023/07/08 08:45:27;;;;;;;6.07;5.50;;;;;;;28.30;50.15;98721.78;4067734;29;20246;-64
2023/07/08 08:47:38;;;;;;;7.22;6.45;;;;;;;28.25;53.06;98719.22;4072319;29;20212;-64
2023/07/08 08:50:18;;;;;;;6.63;6.00;;;;;;;28.71;54.63;98726.13;4080381;29;20207;-64
2023/07/08 08:52:20;;;;;;;6.88;5.45;;;;;;;28.91;53.23;98731.47;4068712;29;20735;-64
2023/07/08 08:54:21;;;;;;;7.45;5.80;;;;;;;28.60;51.65;98727.84;4072639;29;20268;-65
2023/07/08 08:56:34;;;;;;;6.85;6.03;;;;;;;28.68;51.29;98722.03;4070433;29;20271;-64
2023/07/08 08:58:44;;;;;;;6.13;5.20;;;;;;;28.88;52.15;98729.41;4071512;29;20211;-64
2023/07/08 09:00:58;;;;;;;9.02;7.30;;;;;;;28.80;52.98;98724.78;4071015;29;20228;-65
2023/07/08 09:03:06;;;;;;;6.65;6.00;;;;;;;29.07;52.13;98723.03;4075686;29;20208;-64
2023/07/08 09:05:10;;;;;;;8.02;5.65;;;;;;;29.14;52.49;98721.22;4072516;29;20206;-64
2023/07/08 09:07:16;;;;;;;6.57;5.55;;;;;;;29.44;51.37;98719.50;4074080;29;20864;-64
2023/07/08 09:09:24;;;;;;;6.07;5.57;;;;;;;28.66;50.65;98713.13;4069881;29;20762;-64
2023/07/08 09:11:38;;;;;;;7.63;5.55;;;;;;;28.71;51.08;98721.31;4084044;28;20740;-64
2023/07/08 09:13:40;;;;;;;5.53;5.03;;;;;;;28.93;52.33;98717.84;4072006;29;20207;-64
2023/07/08 09:15:41;;;;;;;8.88;5.28;;;;;;;28.71;50.23;98712.84;4070084;29;20367;-64
2023/07/08 09:17:43;;;;;;;6.70;5.30;;;;;;;29.06;51.53;98710.94;4070581;29;20294;-64
2023/07/08 09:19:53;;;;;;;10.80;6.07;;;;;;;29.55;51.42;98705.66;4070005;29;20251;-64
2023/07/08 09:22:17;;;;;;;5.93;5.40;;;;;;;29.62;49.78;98705.81;4075981;29;20231;-64
2023/07/08 09:24:43;;;;;;;10.90;5.70;;;;;;;29.40;50.08;98693.22;4060030;29;20227;-64
2023/07/08 09:26:45;;;;;;;6.18;5.57;;;;;;;29.65;50.12;98705.88;4059812;29;20210;-64
2023/07/08 09:28:47;;;;;;;5.78;4.63;;;;;;;30.05;49.08;98702.72;4073191;29;20215;-63
2023/07/08 09:30:52;;;;;;;6.95;4.90;;;;;;;29.90;49.95;98700.75;4071600;29;20230;-64
2023/07/08 09:32:54;;;;;;;6.55;5.30;;;;;;;30.01;49.36;98702.63;4070988;29;20327;-64
2023/07/08 09:35:04;;;;;;;9.07;5.13;;;;;;;30.59;50.17;98707.00;4069924;29;20262;-64
2023/07/08 09:37:23;;;;;;;6.22;5.45;;;;;;;29.71;47.93;98701.59;4070400;29;20195;-64
2023/07/08 09:39:25;;;;;;;6.18;5.63;;;;;;;29.43;48.30;98703.75;4068988;29;20226;-64